Terminal Aerodrome Forecast
Issued by NWS

Home | Current Version | Previous Version | Graphics & Text | Print | Product List | Glossary On
Versions: 1 2 3 4 5 6 7 8 9 10 11 12
000
FTUS43 KTOP 032300
TAFMHK
TAF
KMHK 032327Z 0400/0424 36012G17KT P6SM SCT025 BKN040
     FM041100 02010KT 5SM -SN BR SCT025 BKN040
     FM041400 02010KT P6SM SCT040 BKN090=

USA.gov is the U.S. government's official web portal to all federal, state and local government web resources and services.